Milford on Sea, United Kingdom
Current Conditions -  °F | °C
As of 8:20 PM on Wednesday 26 Nov 2014 (Local Time) from EGHH Reporting Station
Moderate Rain Moderate Rain  
Wind Chill: 44°   Ceiling: 1200
Heat Index: 46°   Visibility: 2.8mi
Dew Point: 46°   Wind: 5mph
Humidity: 100%   Direction: 320°NW
Pressure: 29.77"   Gusts: NA
Location:  50.73°N, 1.59°W
Report Text: EGHH 262020Z 32004KT 4500 RA BR SCT006 OVC012 08/08 Q1008
Loading
Personal Weather Stations






























Interactive Weather Map New forecast layout! Learn more

10-Day Weather Forecast

Advertisements
Track Severe Weather on mobile